Terminal Aerodrome Forecast
Issued by NWS

Current Version | Previous Version | Text Only | Print | Product List | Glossary On
Versions: 1 2 3 4 5 6 7 8 9 10 11 12
000
FTUS45 KBOI 291725
TAFJER
TAF
KJER 291725Z 2918/3018 08006KT P6SM SCT250
     FM292000 26008KT P6SM SCT100 SCT250
     FM300400 21008KT P6SM SCT250
     FM301500 24017G27KT P6SM SCT250=

USA.gov is the U.S. government's official web portal to all federal, state and local government web resources and services.